sensor_id;sensor_type;location;lat;lon;timestamp;pressure;altitude;pressure_sealevel;temperature;humidity
79230;BME280;68663;49.122;17.544;2024-02-15T00:00:02;99982.25;;;23.41;45.10
79230;BME280;68663;49.122;17.544;2024-02-15T00:02:30;99982.63;;;23.43;45.26
79230;BME280;68663;49.122;17.544;2024-02-15T00:04:56;99982.63;;;23.46;44.96
79230;BME280;68663;49.122;17.544;2024-02-15T00:07:21;99983.44;;;23.47;45.28
79230;BME280;68663;49.122;17.544;2024-02-15T00:09:48;99983.84;;;23.42;45.10
79230;BME280;68663;49.122;17.544;2024-02-15T00:12:14;99988.69;;;23.38;45.33
79230;BME280;68663;49.122;17.544;2024-02-15T00:14:39;99986.28;;;23.36;45.35
79230;BME280;68663;49.122;17.544;2024-02-15T00:17:05;99983.84;;;23.38;45.46
79230;BME280;68663;49.122;17.544;2024-02-15T00:19:30;99981.41;;;23.40;45.30
79230;BME280;68663;49.122;17.544;2024-02-15T00:21:56;99991.91;;;23.40;45.36
79230;BME280;68663;49.122;17.544;2024-02-15T00:24:22;99984.66;;;23.42;45.26
79230;BME280;68663;49.122;17.544;2024-02-15T00:26:47;99985.44;;;23.46;45.20
79230;BME280;68663;49.122;17.544;2024-02-15T00:29:13;99982.22;;;23.48;45.23
79230;BME280;68663;49.122;17.544;2024-02-15T00:31:39;99987.47;;;23.46;45.43
79230;BME280;68663;49.122;17.544;2024-02-15T00:34:05;99979.00;;;23.42;45.55
79230;BME280;68663;49.122;17.544;2024-02-15T00:36:31;99981.41;;;23.40;45.67
79230;BME280;68663;49.122;17.544;2024-02-15T00:39:00;99987.88;;;23.41;45.43
79230;BME280;68663;49.122;17.544;2024-02-15T00:41:25;99979.41;;;23.41;45.59
79230;BME280;68663;49.122;17.544;2024-02-15T00:43:51;99982.25;;;23.41;45.32
79230;BME280;68663;49.122;17.544;2024-02-15T00:46:17;99986.69;;;23.42;45.54
79230;BME280;68663;49.122;17.544;2024-02-15T00:48:42;99991.88;;;23.47;45.70
79230;BME280;68663;49.122;17.544;2024-02-15T00:51:08;99985.44;;;23.50;45.43
79230;BME280;68663;49.122;17.544;2024-02-15T00:53:34;99975.75;;;23.47;45.35
79230;BME280;68663;49.122;17.544;2024-02-15T00:55:59;99975.38;;;23.42;45.50
79230;BME280;68663;49.122;17.544;2024-02-15T00:58:25;99966.91;;;23.38;45.53
79230;BME280;68663;49.122;17.544;2024-02-15T01:00:52;99974.16;;;23.39;45.84
79230;BME280;68663;49.122;17.544;2024-02-15T01:03:19;99977.41;;;23.41;45.59
79230;BME280;68663;49.122;17.544;2024-02-15T01:05:44;99972.56;;;23.42;45.49
79230;BME280;68663;49.122;17.544;2024-02-15T01:08:10;99966.91;;;23.42;45.66
79230;BME280;68663;49.122;17.544;2024-02-15T01:10:36;99968.53;;;23.43;45.64
79230;BME280;68663;49.122;17.544;2024-02-15T01:13:02;99957.63;;;23.48;45.62
79230;BME280;68663;49.122;17.544;2024-02-15T01:15:27;99964.06;;;23.49;45.54
79230;BME280;68663;49.122;17.544;2024-02-15T01:17:52;99963.66;;;23.47;45.53
79230;BME280;68663;49.122;17.544;2024-02-15T01:20:18;99977.38;;;23.45;45.27
79230;BME280;68663;49.122;17.544;2024-02-15T01:22:43;99966.13;;;23.41;45.59
79230;BME280;68663;49.122;17.544;2024-02-15T01:25:09;99960.47;;;23.41;45.60
79230;BME280;68663;49.122;17.544;2024-02-15T01:27:36;99962.88;;;23.43;45.70
79230;BME280;68663;49.122;17.544;2024-02-15T01:30:01;99963.69;;;23.43;45.93
79230;BME280;68663;49.122;17.544;2024-02-15T01:32:26;99963.66;;;23.47;45.76
79230;BME280;68663;49.122;17.544;2024-02-15T01:34:52;99960.03;;;23.50;45.79
79230;BME280;68663;49.122;17.544;2024-02-15T01:37:20;99952.78;;;23.49;45.88
79230;BME280;68663;49.122;17.544;2024-02-15T01:39:46;99947.94;;;23.46;45.84
79230;BME280;68663;49.122;17.544;2024-02-15T01:42:11;99946.75;;;23.43;45.98
79230;BME280;68663;49.122;17.544;2024-02-15T01:44:40;99956.03;;;23.44;45.91
79230;BME280;68663;49.122;17.544;2024-02-15T01:47:06;99955.22;;;23.43;46.13
79230;BME280;68663;49.122;17.544;2024-02-15T01:49:32;99947.56;;;23.44;45.95
79230;BME280;68663;49.122;17.544;2024-02-15T01:51:58;99945.94;;;23.43;46.25
79230;BME280;68663;49.122;17.544;2024-02-15T01:54:25;99957.22;;;23.46;46.20
79230;BME280;68663;49.122;17.544;2024-02-15T01:56:51;99955.59;;;23.49;46.17
79230;BME280;68663;49.122;17.544;2024-02-15T01:59:17;99949.97;;;23.45;46.34
79230;BME280;68663;49.122;17.544;2024-02-15T02:01:44;99957.25;;;23.36;46.34
79230;BME280;68663;49.122;17.544;2024-02-15T02:04:10;99955.63;;;23.35;46.02
79230;BME280;68663;49.122;17.544;2024-02-15T02:06:37;99952.38;;;23.40;46.32
79230;BME280;68663;49.122;17.544;2024-02-15T02:09:03;99947.56;;;23.40;46.13
79230;BME280;68663;49.122;17.544;2024-02-15T02:11:28;99948.38;;;23.41;46.38
79230;BME280;68663;49.122;17.544;2024-02-15T02:13:55;99957.25;;;23.43;46.12
79230;BME280;68663;49.122;17.544;2024-02-15T02:16:30;99941.91;;;23.47;45.99
79230;BME280;68663;49.122;17.544;2024-02-15T02:19:01;99941.09;;;23.47;46.19
79230;BME280;68663;49.122;17.544;2024-02-15T02:21:26;99936.28;;;23.44;46.28
79230;BME280;68663;49.122;17.544;2024-02-15T02:23:53;99941.09;;;23.43;46.13
79230;BME280;68663;49.122;17.544;2024-02-15T02:26:21;99937.91;;;23.41;46.14
79230;BME280;68663;49.122;17.544;2024-02-15T02:28:47;99934.66;;;23.43;45.88
79230;BME280;68663;49.122;17.544;2024-02-15T02:31:13;99940.31;;;23.43;46.16
79230;BME280;68663;49.122;17.544;2024-02-15T02:33:39;99940.31;;;23.43;46.43
79230;BME280;68663;49.122;17.544;2024-02-15T02:36:06;99932.22;;;23.45;46.03
79230;BME280;68663;49.122;17.544;2024-02-15T02:38:37;99928.16;;;23.49;45.82
79230;BME280;68663;49.122;17.544;2024-02-15T02:41:06;99936.66;;;23.46;46.28
79230;BME280;68663;49.122;17.544;2024-02-15T02:43:31;99933.06;;;23.42;46.05
79230;BME280;68663;49.122;17.544;2024-02-15T02:45:57;99929.41;;;23.38;46.23
79230;BME280;68663;49.122;17.544;2024-02-15T02:48:22;99932.25;;;23.38;46.33
79230;BME280;68663;49.122;17.544;2024-02-15T02:50:48;99933.84;;;23.39;46.05
79230;BME280;68663;49.122;17.544;2024-02-15T02:53:14;99934.28;;;23.41;46.13
79230;BME280;68663;49.122;17.544;2024-02-15T02:55:41;99928.63;;;23.41;46.13
79230;BME280;68663;49.122;17.544;2024-02-15T02:58:06;99919.34;;;23.44;45.93
79230;BME280;68663;49.122;17.544;2024-02-15T03:00:33;99924.97;;;23.47;45.82
79230;BME280;68663;49.122;17.544;2024-02-15T03:02:58;99922.56;;;23.46;45.96
79230;BME280;68663;49.122;17.544;2024-02-15T03:05:25;99924.97;;;23.44;46.13
79230;BME280;68663;49.122;17.544;2024-02-15T03:07:51;99922.16;;;23.40;46.26
79230;BME280;68663;49.122;17.544;2024-02-15T03:10:17;99915.69;;;23.40;45.85
79230;BME280;68663;49.122;17.544;2024-02-15T03:12:44;99922.16;;;23.40;45.76
79230;BME280;68663;49.122;17.544;2024-02-15T03:15:15;99922.16;;;23.40;46.15
79230;BME280;68663;49.122;17.544;2024-02-15T03:17:42;99928.63;;;23.41;45.87
79230;BME280;68663;49.122;17.544;2024-02-15T03:20:09;99934.66;;;23.43;46.31
79230;BME280;68663;49.122;17.544;2024-02-15T03:23:05;99935.44;;;23.47;45.92
79230;BME280;68663;49.122;17.544;2024-02-15T03:25:31;99926.19;;;23.43;46.32
79230;BME280;68663;49.122;17.544;2024-02-15T03:27:58;99927.00;;;23.40;46.26
79230;BME280;68663;49.122;17.544;2024-02-15T03:30:27;99921.34;;;23.40;45.94
79230;BME280;68663;49.122;17.544;2024-02-15T03:32:54;99928.22;;;23.39;45.98
79230;BME280;68663;49.122;17.544;2024-02-15T03:35:21;99920.53;;;23.39;46.16
79230;BME280;68663;49.122;17.544;2024-02-15T03:37:51;99924.97;;;23.40;45.81
79230;BME280;68663;49.122;17.544;2024-02-15T03:40:17;99929.03;;;23.43;45.87
79230;BME280;68663;49.122;17.544;2024-02-15T03:42:43;99929.81;;;23.47;46.03
79230;BME280;68663;49.122;17.544;2024-02-15T03:45:09;99933.81;;;23.49;45.70
79230;BME280;68663;49.122;17.544;2024-02-15T03:47:35;99933.84;;;23.46;46.27
79230;BME280;68663;49.122;17.544;2024-02-15T03:50:06;99929.41;;;23.38;45.93
79230;BME280;68663;49.122;17.544;2024-02-15T03:52:33;99929.03;;;23.36;46.19
79230;BME280;68663;49.122;17.544;2024-02-15T03:54:58;99937.88;;;23.38;45.77
79230;BME280;68663;49.122;17.544;2024-02-15T03:57:25;99928.22;;;23.39;45.85
79230;BME280;68663;49.122;17.544;2024-02-15T03:59:50;99933.44;;;23.40;45.91
79230;BME280;68663;49.122;17.544;2024-02-15T04:02:21;99939.50;;;23.42;45.97
79230;BME280;68663;49.122;17.544;2024-02-15T04:04:49;99930.59;;;23.47;45.80
79230;BME280;68663;49.122;17.544;2024-02-15T04:07:15;99927.78;;;23.47;45.86
79230;BME280;68663;49.122;17.544;2024-02-15T04:09:42;99937.06;;;23.44;45.98
79230;BME280;68663;49.122;17.544;2024-02-15T04:12:07;99937.47;;;23.43;45.86
79230;BME280;68663;49.122;17.544;2024-02-15T04:14:33;99937.09;;;23.41;45.83
79230;BME280;68663;49.122;17.544;2024-02-15T04:17:03;99943.94;;;23.40;45.99
79230;BME280;68663;49.122;17.544;2024-02-15T04:19:30;99946.38;;;23.41;45.95
79230;BME280;68663;49.122;17.544;2024-02-15T04:21:56;99942.31;;;23.42;45.89
79230;BME280;68663;49.122;17.544;2024-02-15T04:24:21;99940.31;;;23.43;45.91
79230;BME280;68663;49.122;17.544;2024-02-15T04:26:48;99937.47;;;23.46;45.71
79230;BME280;68663;49.122;17.544;2024-02-15T04:29:16;99931.84;;;23.43;46.00
79230;BME280;68663;49.122;17.544;2024-02-15T04:31:45;99932.25;;;23.38;45.96
79230;BME280;68663;49.122;17.544;2024-02-15T04:34:13;99937.50;;;23.36;45.94
79230;BME280;68663;49.122;17.544;2024-02-15T04:36:38;99939.91;;;23.37;45.97
79230;BME280;68663;49.122;17.544;2024-02-15T04:39:04;99927.00;;;23.40;45.96
79230;BME280;68663;49.122;17.544;2024-02-15T04:41:29;99919.75;;;23.39;46.18
79230;BME280;68663;49.122;17.544;2024-02-15T04:43:55;99922.56;;;23.42;45.70
79230;BME280;68663;49.122;17.544;2024-02-15T04:46:20;99929.41;;;23.45;45.94
79230;BME280;68663;49.122;17.544;2024-02-15T04:48:47;99933.84;;;23.46;47.13
79230;BME280;68663;49.122;17.544;2024-02-15T04:51:14;99934.66;;;23.43;46.61
79230;BME280;68663;49.122;17.544;2024-02-15T04:53:39;99941.09;;;23.40;46.88
79230;BME280;68663;49.122;17.544;2024-02-15T04:56:06;99949.56;;;23.40;47.41
79230;BME280;68663;49.122;17.544;2024-02-15T04:58:41;99940.72;;;23.41;47.52
79230;BME280;68663;49.122;17.544;2024-02-15T05:01:14;99945.94;;;23.43;47.14
79230;BME280;68663;49.122;17.544;2024-02-15T05:03:40;99948.78;;;23.43;46.98
79230;BME280;68663;49.122;17.544;2024-02-15T05:06:05;99949.16;;;23.45;47.08
79230;BME280;68663;49.122;17.544;2024-02-15T05:08:33;99959.63;;;23.48;47.03
79230;BME280;68663;49.122;17.544;2024-02-15T05:11:02;99955.97;;;23.51;47.44
79230;BME280;68663;49.122;17.544;2024-02-15T05:13:29;99954.00;;;23.48;47.49
79230;BME280;68663;49.122;17.544;2024-02-15T05:15:55;99956.41;;;23.46;46.83
79230;BME280;68663;49.122;17.544;2024-02-15T05:18:21;99960.44;;;23.45;46.88
79230;BME280;68663;49.122;17.544;2024-02-15T05:20:46;99954.81;;;23.45;47.10
79230;BME280;68663;49.122;17.544;2024-02-15T05:23:11;99961.25;;;23.45;47.19
79230;BME280;68663;49.122;17.544;2024-02-15T05:25:37;99963.28;;;23.45;47.19
79230;BME280;68663;49.122;17.544;2024-02-15T05:28:03;99966.50;;;23.47;46.92
79230;BME280;68663;49.122;17.544;2024-02-15T05:30:31;99964.03;;;23.52;47.32
79230;BME280;68663;49.122;17.544;2024-02-15T05:32:58;99977.34;;;23.52;47.41
79230;BME280;68663;49.122;17.544;2024-02-15T05:35:23;99976.97;;;23.46;47.72
79230;BME280;68663;49.122;17.544;2024-02-15T05:37:50;99975.38;;;23.45;47.19
79230;BME280;68663;49.122;17.544;2024-02-15T05:40:18;99974.56;;;23.45;47.24
79230;BME280;68663;49.122;17.544;2024-02-15T05:42:44;99977.38;;;23.45;47.17
79230;BME280;68663;49.122;17.544;2024-02-15T05:47:54;99961.66;;;23.44;46.96
79230;BME280;68663;49.122;17.544;2024-02-15T05:50:20;99973.75;;;23.48;46.78
79230;BME280;68663;49.122;17.544;2024-02-15T05:52:47;99963.22;;;23.52;46.62
79230;BME280;68663;49.122;17.544;2024-02-15T05:55:12;99965.66;;;23.50;46.82
79230;BME280;68663;49.122;17.544;2024-02-15T05:57:42;99966.50;;;23.47;46.99
79230;BME280;68663;49.122;17.544;2024-02-15T06:00:08;99973.34;;;23.46;46.46
79230;BME280;68663;49.122;17.544;2024-02-15T06:02:33;99974.56;;;23.45;46.85
79230;BME280;68663;49.122;17.544;2024-02-15T06:04:59;99962.06;;;23.46;46.85
79230;BME280;68663;49.122;17.544;2024-02-15T06:07:30;99967.72;;;23.46;46.86
79230;BME280;68663;49.122;17.544;2024-02-15T06:09:57;99970.13;;;23.47;46.66
79230;BME280;68663;49.122;17.544;2024-02-15T06:12:28;99965.66;;;23.50;46.64
79230;BME280;68663;49.122;17.544;2024-02-15T06:14:53;99972.09;;;23.54;46.44
79230;BME280;68663;49.122;17.544;2024-02-15T06:17:18;99974.13;;;23.54;46.19
79230;BME280;68663;49.122;17.544;2024-02-15T06:19:44;99974.13;;;23.50;46.58
79230;BME280;68663;49.122;17.544;2024-02-15T06:22:09;99983.81;;;23.49;46.32
79230;BME280;68663;49.122;17.544;2024-02-15T06:24:37;99981.81;;;23.46;46.22
79230;BME280;68663;49.122;17.544;2024-02-15T06:27:03;99987.47;;;23.46;46.35
79230;BME280;68663;49.122;17.544;2024-02-15T06:29:29;99987.84;;;23.48;46.43
79230;BME280;68663;49.122;17.544;2024-02-15T06:32:13;99994.31;;;23.48;46.58
79230;BME280;68663;49.122;17.544;2024-02-15T06:34:57;99996.72;;;23.50;46.35
79230;BME280;68663;49.122;17.544;2024-02-15T06:37:40;99991.84;;;23.54;46.29
79230;BME280;68663;49.122;17.544;2024-02-15T06:40:25;99999.13;;;23.55;46.11
79230;BME280;68663;49.122;17.544;2024-02-15T06:42:50;99998.34;;;23.55;46.22
79230;BME280;68663;49.122;17.544;2024-02-15T06:45:16;100005.56;;;23.52;46.09
79230;BME280;68663;49.122;17.544;2024-02-15T06:47:43;100000.75;;;23.49;46.08
79230;BME280;68663;49.122;17.544;2024-02-15T06:50:15;100008.41;;;23.48;45.94
79230;BME280;68663;49.122;17.544;2024-02-15T06:52:42;100008.00;;;23.50;46.26
79230;BME280;68663;49.122;17.544;2024-02-15T06:55:08;100012.03;;;23.49;46.36
79230;BME280;68663;49.122;17.544;2024-02-15T06:57:34;100008.81;;;23.50;46.08
79230;BME280;68663;49.122;17.544;2024-02-15T07:00:03;100008.78;;;23.54;46.06
79230;BME280;68663;49.122;17.544;2024-02-15T07:02:33;100015.25;;;23.55;46.40
79230;BME280;68663;49.122;17.544;2024-02-15T07:04:58;100014.03;;;23.52;46.18
79230;BME280;68663;49.122;17.544;2024-02-15T07:07:24;100019.28;;;23.50;46.13
79230;BME280;68663;49.122;17.544;2024-02-15T07:09:50;100018.09;;;23.37;45.77
79230;BME280;68663;49.122;17.544;2024-02-15T07:12:16;100023.84;;;23.15;40.59
79230;BME280;68663;49.122;17.544;2024-02-15T07:14:41;100026.28;;;23.06;37.73
79230;BME280;68663;49.122;17.544;2024-02-15T07:17:06;100023.03;;;23.11;39.94
79230;BME280;68663;49.122;17.544;2024-02-15T07:19:32;100025.03;;;23.18;38.61
79230;BME280;68663;49.122;17.544;2024-02-15T07:22:02;100012.94;;;23.21;38.37
79230;BME280;68663;49.122;17.544;2024-02-15T07:24:27;100026.63;;;23.26;39.18
79230;BME280;68663;49.122;17.544;2024-02-15T07:26:53;100022.16;;;23.29;39.30
79230;BME280;68663;49.122;17.544;2024-02-15T07:29:21;100021.75;;;23.34;39.77
79230;BME280;68663;49.122;17.544;2024-02-15T07:31:49;100022.53;;;23.38;39.66
79230;BME280;68663;49.122;17.544;2024-02-15T07:34:14;100028.56;;;23.40;39.69
79230;BME280;68663;49.122;17.544;2024-02-15T07:36:39;100033.84;;;23.34;39.92
79230;BME280;68663;49.122;17.544;2024-02-15T07:39:07;100024.19;;;23.32;40.18
79230;BME280;68663;49.122;17.544;2024-02-15T07:41:37;100029.81;;;23.32;40.44
79230;BME280;68663;49.122;17.544;2024-02-15T07:44:03;100025.78;;;23.33;40.78
79230;BME280;68663;49.122;17.544;2024-02-15T07:46:29;100018.13;;;23.33;41.19
79230;BME280;68663;49.122;17.544;2024-02-15T07:48:55;100021.75;;;23.34;41.32
79230;BME280;68663;49.122;17.544;2024-02-15T07:51:21;100020.13;;;23.36;41.61
79230;BME280;68663;49.122;17.544;2024-02-15T07:53:47;100026.56;;;23.40;41.56
79230;BME280;68663;49.122;17.544;2024-02-15T07:56:14;100020.94;;;23.37;41.74
79230;BME280;68663;49.122;17.544;2024-02-15T08:01:07;100018.53;;;23.32;41.78
79230;BME280;68663;49.122;17.544;2024-02-15T08:03:33;100013.28;;;23.34;42.61
79230;BME280;68663;49.122;17.544;2024-02-15T08:06:00;100010.47;;;23.34;43.08
79230;BME280;68663;49.122;17.544;2024-02-15T08:08:26;100013.28;;;23.34;43.89
79230;BME280;68663;49.122;17.544;2024-02-15T08:10:51;100005.63;;;23.38;44.20
79230;BME280;68663;49.122;17.544;2024-02-15T08:13:16;100001.59;;;23.42;44.92
79230;BME280;68663;49.122;17.544;2024-02-15T08:15:42;100004.00;;;23.44;44.95
79230;BME280;68663;49.122;17.544;2024-02-15T08:18:10;100006.44;;;23.42;45.15
79230;BME280;68663;49.122;17.544;2024-02-15T08:20:38;99998.34;;;23.40;45.50
79230;BME280;68663;49.122;17.544;2024-02-15T08:23:05;100000.78;;;23.38;45.69
79230;BME280;68663;49.122;17.544;2024-02-15T08:25:31;100008.81;;;23.40;45.83
79230;BME280;68663;49.122;17.544;2024-02-15T08:27:56;100003.19;;;23.40;45.57
79230;BME280;68663;49.122;17.544;2024-02-15T08:30:22;100010.47;;;23.41;45.95
79230;BME280;68663;49.122;17.544;2024-02-15T08:32:47;100008.81;;;23.47;45.83
79230;BME280;68663;49.122;17.544;2024-02-15T08:35:13;100008.81;;;23.47;46.00
79230;BME280;68663;49.122;17.544;2024-02-15T08:37:39;100005.63;;;23.41;46.13
79230;BME280;68663;49.122;17.544;2024-02-15T08:40:07;100005.19;;;23.39;45.88
79230;BME280;68663;49.122;17.544;2024-02-15T08:42:38;100003.59;;;23.38;45.97
79230;BME280;68663;49.122;17.544;2024-02-15T08:45:04;100003.19;;;23.40;46.08
79230;BME280;68663;49.122;17.544;2024-02-15T08:47:30;100009.25;;;23.42;46.11
79230;BME280;68663;49.122;17.544;2024-02-15T08:49:55;100010.06;;;23.42;46.25
79230;BME280;68663;49.122;17.544;2024-02-15T08:52:21;100018.09;;;23.44;46.36
79230;BME280;68663;49.122;17.544;2024-02-15T08:54:46;100015.28;;;23.47;46.37
79230;BME280;68663;49.122;17.544;2024-02-15T08:57:12;100019.69;;;23.52;46.14
79230;BME280;68663;49.122;17.544;2024-02-15T08:59:39;100024.53;;;23.55;46.08
79230;BME280;68663;49.122;17.544;2024-02-15T09:02:04;100026.53;;;23.51;46.38
79230;BME280;68663;49.122;17.544;2024-02-15T09:04:30;100028.56;;;23.47;46.10
79230;BME280;68663;49.122;17.544;2024-02-15T09:06:56;100022.94;;;23.47;45.68
79230;BME280;68663;49.122;17.544;2024-02-15T09:09:22;100017.69;;;23.45;46.03
79230;BME280;68663;49.122;17.544;2024-02-15T09:11:47;100025.75;;;23.47;45.94
79230;BME280;68663;49.122;17.544;2024-02-15T09:14:13;100026.56;;;23.47;45.97
79230;BME280;68663;49.122;17.544;2024-02-15T09:16:38;100033.00;;;23.48;45.87
79230;BME280;68663;49.122;17.544;2024-02-15T09:19:04;100031.38;;;23.50;46.16
79230;BME280;68663;49.122;17.544;2024-02-15T09:21:31;100028.97;;;23.52;46.04
79230;BME280;68663;49.122;17.544;2024-02-15T09:23:59;100038.66;;;23.48;46.23
79230;BME280;68663;49.122;17.544;2024-02-15T09:26:24;100036.66;;;23.45;46.50
79230;BME280;68663;49.122;17.544;2024-02-15T09:28:50;100034.66;;;23.42;46.84
79230;BME280;68663;49.122;17.544;2024-02-15T09:31:15;100028.19;;;23.45;47.19
79230;BME280;68663;49.122;17.544;2024-02-15T09:33:40;100025.75;;;23.47;46.71
79230;BME280;68663;49.122;17.544;2024-02-15T09:36:06;100033.00;;;23.48;47.00
79230;BME280;68663;49.122;17.544;2024-02-15T09:38:31;100027.75;;;23.50;46.89
79230;BME280;68663;49.122;17.544;2024-02-15T09:40:57;100032.19;;;23.55;46.37
79230;BME280;68663;49.122;17.544;2024-02-15T09:43:22;100034.63;;;23.56;46.15
79230;BME280;68663;49.122;17.544;2024-02-15T09:45:51;100032.19;;;23.51;46.54
79230;BME280;68663;49.122;17.544;2024-02-15T09:48:18;100038.66;;;23.48;46.83
79230;BME280;68663;49.122;17.544;2024-02-15T09:50:45;100042.69;;;23.47;48.13
79230;BME280;68663;49.122;17.544;2024-02-15T09:53:12;100045.91;;;23.49;47.88
79230;BME280;68663;49.122;17.544;2024-02-15T09:55:39;100037.84;;;23.51;47.98
79230;BME280;68663;49.122;17.544;2024-02-15T09:58:07;100035.00;;;23.51;47.73
79230;BME280;68663;49.122;17.544;2024-02-15T10:00:34;100032.19;;;23.51;47.50
79230;BME280;68663;49.122;17.544;2024-02-15T10:03:00;100032.59;;;23.53;47.54
79230;BME280;68663;49.122;17.544;2024-02-15T10:05:27;100029.38;;;23.58;47.60
79230;BME280;68663;49.122;17.544;2024-02-15T10:07:53;100027.31;;;23.62;47.74
79230;BME280;68663;49.122;17.544;2024-02-15T10:10:19;100024.91;;;23.61;47.83
79230;BME280;68663;49.122;17.544;2024-02-15T10:12:55;100022.91;;;23.58;48.49
79230;BME280;68663;49.122;17.544;2024-02-15T10:18:01;100018.47;;;23.53;49.59
79230;BME280;68663;49.122;17.544;2024-02-15T10:20:27;100014.44;;;23.54;49.31
79230;BME280;68663;49.122;17.544;2024-02-15T10:22:58;100012.44;;;23.55;49.60
79230;BME280;68663;49.122;17.544;2024-02-15T10:25:34;100008.78;;;23.54;49.68
79230;BME280;68663;49.122;17.544;2024-02-15T10:28:03;100010.81;;;23.57;49.37
79230;BME280;68663;49.122;17.544;2024-02-15T10:30:33;100017.25;;;23.61;50.27
79230;BME280;68663;49.122;17.544;2024-02-15T10:33:01;100008.38;;;23.59;50.46
79230;BME280;68663;49.122;17.544;2024-02-15T10:35:26;100011.22;;;23.52;50.85
79230;BME280;68663;49.122;17.544;2024-02-15T10:38:04;100005.97;;;23.50;50.66
79230;BME280;68663;49.122;17.544;2024-02-15T10:40:30;100005.56;;;23.52;50.77
79230;BME280;68663;49.122;17.544;2024-02-15T10:42:58;100007.19;;;23.53;50.65
79230;BME280;68663;49.122;17.544;2024-02-15T10:45:24;100001.53;;;23.53;50.68
79230;BME280;68663;49.122;17.544;2024-02-15T10:47:50;100000.75;;;23.56;51.37
79230;BME280;68663;49.122;17.544;2024-02-15T10:50:15;99998.31;;;23.58;51.02
79230;BME280;68663;49.122;17.544;2024-02-15T10:52:54;99995.06;;;23.63;51.30
79230;BME280;68663;49.122;17.544;2024-02-15T10:55:48;99988.22;;;23.61;51.45
79230;BME280;68663;49.122;17.544;2024-02-15T10:58:19;99986.22;;;23.54;51.52
79230;BME280;68663;49.122;17.544;2024-02-15T11:00:47;99978.94;;;23.53;51.33
79230;BME280;68663;49.122;17.544;2024-02-15T11:03:24;99981.41;;;23.55;51.25
79230;BME280;68663;49.122;17.544;2024-02-15T11:05:51;99985.41;;;23.57;50.70
79230;BME280;68663;49.122;17.544;2024-02-15T11:08:17;99989.03;;;23.58;50.97
79230;BME280;68663;49.122;17.544;2024-02-15T11:10:43;99978.94;;;23.60;51.11
79230;BME280;68663;49.122;17.544;2024-02-15T11:13:10;99976.91;;;23.64;51.18
79230;BME280;68663;49.122;17.544;2024-02-15T11:18:01;99977.34;;;23.59;51.38
79230;BME280;68663;49.122;17.544;2024-02-15T11:22:58;99979.78;;;23.57;50.95
79230;BME280;68663;49.122;17.544;2024-02-15T11:25:34;99981.38;;;23.58;50.42
79230;BME280;68663;49.122;17.544;2024-02-15T11:30:49;99974.91;;;23.61;50.50
79230;BME280;68663;49.122;17.544;2024-02-15T11:33:30;99972.47;;;23.63;50.54
79230;BME280;68663;49.122;17.544;2024-02-15T11:36:07;99972.06;;;23.65;50.63
79230;BME280;68663;49.122;17.544;2024-02-15T11:38:34;99970.50;;;23.57;50.99
79230;BME280;68663;49.122;17.544;2024-02-15T11:41:01;99967.66;;;23.53;50.48
79230;BME280;68663;49.122;17.544;2024-02-15T11:46:09;99969.28;;;23.58;50.11
79230;BME280;68663;49.122;17.544;2024-02-15T11:48:38;99963.63;;;23.58;49.92
79230;BME280;68663;49.122;17.544;2024-02-15T11:51:05;99957.56;;;23.59;49.37
79230;BME280;68663;49.122;17.544;2024-02-15T11:53:32;99957.56;;;23.63;49.51
79230;BME280;68663;49.122;17.544;2024-02-15T11:56:01;99957.94;;;23.65;49.65
79230;BME280;68663;49.122;17.544;2024-02-15T11:58:27;99957.56;;;23.63;49.73
79230;BME280;68663;49.122;17.544;2024-02-15T12:01:11;99955.56;;;23.60;49.45
79230;BME280;68663;49.122;17.544;2024-02-15T12:03:55;99959.59;;;23.59;49.41
79230;BME280;68663;49.122;17.544;2024-02-15T12:06:39;99957.56;;;23.59;49.32
79230;BME280;68663;49.122;17.544;2024-02-15T12:09:23;99949.91;;;23.60;48.88
79230;BME280;68663;49.122;17.544;2024-02-15T12:12:09;99962.41;;;23.59;49.29
79230;BME280;68663;49.122;17.544;2024-02-15T12:15:00;99962.00;;;23.60;49.37
79230;BME280;68663;49.122;17.544;2024-02-15T12:17:44;99961.19;;;23.63;49.78
79230;BME280;68663;49.122;17.544;2024-02-15T12:20:28;99961.56;;;23.65;50.10
79230;BME280;68663;49.122;17.544;2024-02-15T12:22:54;99955.53;;;23.63;49.98
79230;BME280;68663;49.122;17.544;2024-02-15T12:25:20;99961.59;;;23.62;50.45
79230;BME280;68663;49.122;17.544;2024-02-15T12:27:58;99958.78;;;23.58;50.48
79230;BME280;68663;49.122;17.544;2024-02-15T12:30:24;99957.56;;;23.59;50.53
79230;BME280;68663;49.122;17.544;2024-02-15T12:32:52;99956.38;;;23.60;50.05
79230;BME280;68663;49.122;17.544;2024-02-15T12:35:22;99950.72;;;23.60;49.83
79230;BME280;68663;49.122;17.544;2024-02-15T12:38:02;99946.69;;;23.61;49.52
79230;BME280;68663;49.122;17.544;2024-02-15T12:40:34;99949.06;;;23.66;49.40
79230;BME280;68663;49.122;17.544;2024-02-15T12:43:00;99951.88;;;23.66;49.58
79230;BME280;68663;49.122;17.544;2024-02-15T12:45:26;99943.84;;;23.61;49.15
79230;BME280;68663;49.122;17.544;2024-02-15T12:47:54;99943.06;;;23.57;49.05
79230;BME280;68663;49.122;17.544;2024-02-15T12:50:23;99942.28;;;23.57;48.99
79230;BME280;68663;49.122;17.544;2024-02-15T12:52:53;99939.84;;;23.59;48.42
79230;BME280;68663;49.122;17.544;2024-02-15T12:55:21;99925.72;;;23.59;48.88
79230;BME280;68663;49.122;17.544;2024-02-15T12:57:52;99925.31;;;23.60;48.68
79230;BME280;68663;49.122;17.544;2024-02-15T13:00:27;99931.34;;;23.62;48.54
79230;BME280;68663;49.122;17.544;2024-02-15T13:03:03;99920.44;;;23.64;48.33
79230;BME280;68663;49.122;17.544;2024-02-15T13:05:30;99919.66;;;23.60;48.03
79230;BME280;68663;49.122;17.544;2024-02-15T13:07:56;99918.47;;;23.58;47.83